Time;durP1;ratioP1;P1;durP2;ratioP2;P2;SDS_P1;SDS_P2;PMS_P1;PMS_P2;Temp;Humidity;BMP_temperature;BMP_pressure;BME280_temperature;BME280_humidity;BME280_pressure;Samples;Min_cycle;Max_cycle;Signal;HPM_P1;HPM_P2
2022/01/16 00:04:07;;;;;;;30.55;18.60;;;;;;;3.96;100.00;102137.94;10174249;28;20104;-67
2022/01/16 00:09:04;;;;;;;32.05;20.55;;;;;;;3.98;100.00;102130.41;10189098;28;20081;-67
2022/01/16 00:14:02;;;;;;;32.10;17.10;;;;;;;3.93;100.00;102122.19;10171441;28;20053;-67
2022/01/16 00:18:59;;;;;;;29.83;18.13;;;;;;;3.90;100.00;102106.44;10168317;28;20529;-67
2022/01/16 00:23:55;;;;;;;35.30;20.83;;;;;;;3.91;100.00;102108.06;10172616;28;20482;-67
2022/01/16 00:28:52;;;;;;;26.83;17.40;;;;;;;3.90;100.00;102122.66;10186457;28;20058;-67
2022/01/16 00:33:49;;;;;;;28.35;17.73;;;;;;;3.86;100.00;102132.31;10189080;28;20081;-66
2022/01/16 00:38:50;;;;;;;27.55;16.95;;;;;;;3.83;100.00;102116.56;10185414;28;20470;-66
2022/01/16 00:43:51;;;;;;;25.48;17.25;;;;;;;3.79;100.00;102118.09;10167285;28;20096;-64
2022/01/16 00:48:48;;;;;;;25.75;16.85;;;;;;;3.73;100.00;102094.69;10203220;28;20070;-64
2022/01/16 00:53:44;;;;;;;26.88;16.88;;;;;;;3.73;100.00;102062.22;10160767;28;20105;-66
2022/01/16 00:58:41;;;;;;;22.67;15.15;;;;;;;3.77;100.00;102063.41;10183840;28;20065;-69
2022/01/16 01:03:38;;;;;;;25.92;16.33;;;;;;;3.69;100.00;102039.41;10161584;28;20106;-64
2022/01/16 01:08:35;;;;;;;26.52;16.90;;;;;;;3.62;100.00;102066.63;10204653;28;20438;-65
2022/01/16 01:13:43;;;;;;;26.45;16.33;;;;;;;3.52;100.00;102047.47;10160889;28;20097;-69
2022/01/16 01:18:39;;;;;;;26.80;16.30;;;;;;;3.50;100.00;102031.44;10190519;28;20137;-65
2022/01/16 01:23:36;;;;;;;24.40;15.48;;;;;;;3.51;100.00;102033.13;10171763;28;20550;-67
2022/01/16 01:28:32;;;;;;;25.20;15.35;;;;;;;3.43;100.00;102029.94;10180131;28;20038;-66
2022/01/16 01:33:28;;;;;;;24.23;15.35;;;;;;;3.43;100.00;102047.00;10183384;28;20062;-66
2022/01/16 01:38:25;;;;;;;29.13;16.88;;;;;;;3.36;100.00;102040.88;10182221;28;20092;-65
2022/01/16 01:53:42;;;;;;;27.02;15.20;;;;;;;3.44;100.00;101951.31;10167119;28;20132;-65
2022/01/16 01:58:39;;;;;;;27.83;16.70;;;;;;;3.43;100.00;101955.06;10155310;28;20042;-67
2022/01/16 02:08:38;;;;;;;29.63;18.67;;;;;;;3.27;100.00;101993.66;10199778;28;20498;-68
2022/01/16 02:13:46;;;;;;;31.52;19.45;;;;;;;3.34;100.00;101997.03;10190636;28;20085;-65
2022/01/16 02:34:31;;;;;;;32.88;20.35;;;;;;;3.26;100.00;101992.03;10197762;28;20046;-66
2022/01/16 02:39:31;;;;;;;31.88;20.60;;;;;;;3.23;100.00;101997.91;10189333;28;20073;-67
2022/01/16 02:49:27;;;;;;;34.00;19.98;;;;;;;3.27;100.00;101988.25;10199084;28;20124;-67
2022/01/16 02:54:28;;;;;;;;;;;;;;;3.23;100.00;101981.69;10172494;28;20144;-67
2022/01/16 02:59:25;;;;;;;40.78;24.58;;;;;;;3.23;100.00;101970.88;10205693;28;19940;-68
2022/01/16 03:04:21;;;;;;;42.28;23.67;;;;;;;3.25;100.00;101968.72;10201779;28;20136;-67
2022/01/16 03:09:19;;;;;;;45.63;26.33;;;;;;;3.07;100.00;101975.94;10188735;28;20073;-67
2022/01/16 03:14:19;;;;;;;46.72;27.15;;;;;;;3.09;100.00;101959.50;10199919;28;20049;-66
2022/01/16 03:24:40;;;;;;;44.75;25.98;;;;;;;2.99;100.00;101935.75;10175543;28;20467;-66
2022/01/16 03:29:38;;;;;;;47.35;24.63;;;;;;;2.98;100.00;101942.22;10194609;28;20677;-67
2022/01/16 03:34:34;;;;;;;51.35;26.13;;;;;;;2.91;100.00;101947.75;10185288;28;20091;-65
2022/01/16 03:39:31;;;;;;;46.15;25.83;;;;;;;2.91;100.00;101936.13;10228899;28;20041;-64
2022/01/16 03:44:28;;;;;;;47.97;26.00;;;;;;;2.92;100.00;101926.97;10203843;28;20046;-65
2022/01/16 03:49:28;;;;;;;49.90;25.73;;;;;;;3.11;100.00;101920.38;10218513;28;20139;-65
2022/01/16 03:54:30;;;;;;;50.47;27.57;;;;;;;3.05;100.00;101910.50;10196405;28;20502;-65
2022/01/16 03:59:27;;;;;;;60.10;27.92;;;;;;;2.96;100.00;101906.53;10204241;28;20473;-65
2022/01/16 04:04:24;;;;;;;68.32;28.40;;;;;;;2.82;100.00;101899.75;10192029;28;20096;-65
2022/01/16 04:09:20;;;;;;;54.67;28.08;;;;;;;2.94;100.00;101892.44;10193390;28;20437;-65
2022/01/16 04:14:23;;;;;;;59.80;29.48;;;;;;;2.99;100.00;101895.22;10197938;28;20516;-65
2022/01/16 04:19:21;;;;;;;42.90;24.42;;;;;;;2.79;100.00;101897.53;10190489;28;20066;-67
2022/01/16 04:24:17;;;;;;;47.80;25.13;;;;;;;2.92;100.00;101878.34;10196089;28;20137;-68
2022/01/16 04:29:14;;;;;;;44.53;25.60;;;;;;;2.81;100.00;101887.28;10202547;28;20104;-67
2022/01/16 04:34:10;;;;;;;45.58;22.35;;;;;;;2.79;100.00;101884.81;10183711;28;20041;-67
2022/01/16 04:39:12;;;;;;;47.83;24.75;;;;;;;2.77;100.00;101886.13;10212424;28;20054;-67
2022/01/16 04:44:09;;;;;;;47.83;23.43;;;;;;;2.69;100.00;101887.28;10195906;28;20076;-68
2022/01/16 04:49:05;;;;;;;40.25;22.40;;;;;;;2.79;100.00;101900.22;10213370;28;20125;-65
2022/01/16 04:54:02;;;;;;;46.45;24.08;;;;;;;2.89;100.00;101903.13;10188619;28;20103;-67
2022/01/16 04:59:08;;;;;;;47.05;24.58;;;;;;;2.93;100.00;101907.81;10198608;28;20042;-67
2022/01/16 05:04:04;;;;;;;43.63;23.90;;;;;;;2.77;100.00;101902.34;10184474;28;20480;-68
2022/01/16 05:09:01;;;;;;;46.00;24.90;;;;;;;2.70;100.00;101891.66;10215628;28;20042;-67
2022/01/16 05:18:54;;;;;;;45.28;24.05;;;;;;;2.74;100.00;101880.13;10217534;28;20046;-66
2022/01/16 05:23:52;;;;;;;52.38;25.88;;;;;;;2.79;100.00;101886.72;10188054;28;20184;-66
2022/01/16 05:28:48;;;;;;;46.97;24.40;;;;;;;2.64;100.00;101874.50;10219816;28;20211;-65
2022/01/16 05:33:45;;;;;;;50.67;24.70;;;;;;;2.68;100.00;101864.88;10176830;28;20077;-66
2022/01/16 05:38:41;;;;;;;49.90;25.08;;;;;;;2.92;100.00;101864.81;10210633;28;20066;-66
2022/01/16 05:43:38;;;;;;;42.88;20.63;;;;;;;2.81;100.00;101868.38;10193848;28;20124;-66
2022/01/16 05:48:34;;;;;;;49.60;24.05;;;;;;;2.82;100.00;101870.03;10214148;28;20048;-66
2022/01/16 05:53:31;;;;;;;52.33;25.58;;;;;;;2.76;100.00;101879.06;10196153;28;20077;-67
2022/01/16 05:58:27;;;;;;;50.63;22.77;;;;;;;2.70;100.00;101864.66;10221088;28;20100;-68
2022/01/16 06:03:23;;;;;;;46.95;22.25;;;;;;;2.62;100.00;101862.28;10163515;28;20126;-68
2022/01/16 06:08:20;;;;;;;47.15;21.45;;;;;;;2.66;100.00;101845.38;10206472;28;20391;-67
2022/01/16 06:13:16;;;;;;;45.30;22.42;;;;;;;2.69;100.00;101836.81;10193465;28;20556;-68
2022/01/16 06:18:14;;;;;;;50.60;24.73;;;;;;;2.83;100.00;101840.09;10209236;28;20070;-67
2022/01/16 06:23:14;;;;;;;57.45;26.05;;;;;;;2.87;100.00;101829.59;10193150;28;20049;-67
2022/01/16 06:28:11;;;;;;;60.95;26.98;;;;;;;2.76;100.00;101823.16;10203907;28;20417;-67
2022/01/16 06:33:09;;;;;;;62.78;27.35;;;;;;;2.85;100.00;101812.81;10193497;28;20518;-69
2022/01/16 06:38:06;;;;;;;58.45;26.40;;;;;;;2.79;100.00;101794.88;10231679;28;20052;-68
2022/01/16 06:43:02;;;;;;;59.25;26.88;;;;;;;2.70;100.00;101792.53;10164908;28;20134;-66
2022/01/16 06:47:59;;;;;;;62.67;27.80;;;;;;;2.79;100.00;101797.59;10230065;28;20049;-64
2022/01/16 06:52:55;;;;;;;64.38;28.27;;;;;;;2.69;100.00;101788.22;10193247;28;20108;-67
2022/01/16 06:57:52;;;;;;;66.82;27.40;;;;;;;2.69;100.00;101790.91;10219817;28;20111;-68
2022/01/16 07:02:48;;;;;;;59.58;27.27;;;;;;;2.93;100.00;101788.94;10194106;28;20046;-69
2022/01/16 07:07:45;;;;;;;53.70;24.20;;;;;;;2.96;100.00;101787.66;10195151;28;20069;-69
2022/01/16 07:12:41;;;;;;;52.13;23.83;;;;;;;2.69;100.00;101788.22;10177700;28;20061;-70
2022/01/16 07:17:38;;;;;;;45.53;21.65;;;;;;;2.78;100.00;101787.81;10172117;28;20060;-70
2022/01/16 07:22:38;;;;;;;45.03;21.30;;;;;;;2.87;100.00;101779.09;10175812;28;20060;-68
2022/01/16 07:27:35;;;;;;;50.85;23.63;;;;;;;2.93;100.00;101775.44;10176735;28;20070;-69
2022/01/16 07:32:31;;;;;;;51.70;24.63;;;;;;;2.92;100.00;101775.66;10184585;28;20581;-69
2022/01/16 07:37:28;;;;;;;55.80;25.00;;;;;;;3.02;100.00;101775.88;10186294;28;20124;-68
2022/01/16 07:42:24;;;;;;;56.75;26.30;;;;;;;3.02;100.00;101789.41;10179029;28;20192;-69
2022/01/16 07:47:21;;;;;;;58.00;24.52;;;;;;;2.87;100.00;101794.50;10180515;28;20050;-69
2022/01/16 07:52:17;;;;;;;54.90;24.90;;;;;;;2.80;100.00;101791.91;10179938;28;20074;-69
2022/01/16 07:57:17;;;;;;;61.95;25.30;;;;;;;2.77;100.00;101799.69;10183547;28;20046;-69
2022/01/16 08:02:13;;;;;;;62.22;27.05;;;;;;;2.77;100.00;101805.09;10185602;28;20080;-69
2022/01/16 08:07:10;;;;;;;70.25;24.85;;;;;;;2.70;100.00;101814.16;10183349;28;20064;-69
2022/01/16 08:12:14;;;;;;;66.77;26.50;;;;;;;2.66;100.00;101821.06;10182358;28;20042;-70
2022/01/16 08:17:10;;;;;;;72.60;31.95;;;;;;;2.62;100.00;101825.34;10193400;28;20069;-70
2022/01/16 08:22:08;;;;;;;88.45;36.10;;;;;;;2.53;100.00;101854.56;10178765;28;20780;-70
2022/01/16 08:27:05;;;;;;;90.10;35.58;;;;;;;2.58;100.00;101832.25;10175069;28;21316;-69
2022/01/16 08:32:02;;;;;;;85.10;33.95;;;;;;;2.60;100.00;101832.84;10170746;28;20082;-69
2022/01/16 08:36:58;;;;;;;91.35;32.30;;;;;;;2.52;100.00;101827.78;10167508;28;20050;-69
2022/01/16 08:41:55;;;;;;;87.00;32.00;;;;;;;2.43;100.00;101840.81;10182304;28;20416;-68
2022/01/16 08:46:52;;;;;;;83.78;33.15;;;;;;;2.65;100.00;101824.84;10171793;28;20074;-69
2022/01/16 08:51:49;;;;;;;84.97;32.63;;;;;;;2.62;100.00;101825.34;10185860;28;20065;-68
2022/01/16 08:56:45;;;;;;;96.82;34.60;;;;;;;2.65;100.00;101826.72;10194396;28;20455;-68
2022/01/16 09:01:45;;;;;;;91.32;35.80;;;;;;;2.67;100.00;101828.13;10194068;28;20041;-70
2022/01/16 09:06:42;;;;;;;88.97;33.45;;;;;;;2.54;100.00;101828.38;10178187;28;20515;-69
2022/01/16 09:11:41;;;;;;;85.72;32.70;;;;;;;2.47;100.00;101824.97;10177035;28;20472;-70
2022/01/16 09:16:38;;;;;;;96.90;34.63;;;;;;;2.42;100.00;101832.97;10214288;28;20661;-69
2022/01/16 09:21:35;;;;;;;104.05;37.42;;;;;;;2.48;100.00;101829.31;10174124;28;20069;-70
2022/01/16 09:26:31;;;;;;;95.97;34.28;;;;;;;2.48;100.00;101830.16;10171038;28;20047;-71
2022/01/16 09:31:28;;;;;;;90.65;33.72;;;;;;;2.54;100.00;101839.19;10177016;28;21319;-70
2022/01/16 09:36:25;;;;;;;98.43;34.95;;;;;;;2.50;100.00;101821.81;10171724;28;20046;-70
2022/01/16 09:41:22;;;;;;;87.05;33.40;;;;;;;2.64;100.00;101817.78;10169820;28;20096;-71
2022/01/16 09:46:19;;;;;;;97.72;35.47;;;;;;;2.64;100.00;101817.78;10171873;28;20098;-72
2022/01/16 09:51:15;;;;;;;102.43;37.03;;;;;;;2.66;100.00;101821.06;10182450;28;20038;-69
2022/01/16 09:56:17;;;;;;;98.45;34.78;;;;;;;2.64;100.00;101816.97;10181989;28;20046;-71
2022/01/16 10:01:13;;;;;;;98.20;33.65;;;;;;;2.62;100.00;101825.34;10174254;28;20045;-70
2022/01/16 10:06:12;;;;;;;100.00;36.60;;;;;;;2.61;100.00;101829.06;10172690;28;20041;-70
2022/01/16 10:11:29;;;;;;;104.45;37.80;;;;;;;2.61;100.00;101823.66;10179894;28;20074;-70
2022/01/16 10:16:46;;;;;;;96.45;34.65;;;;;;;2.53;100.00;101815.94;10179076;28;20133;-70
2022/01/16 10:21:43;;;;;;;105.93;37.25;;;;;;;2.66;100.00;101815.66;10189754;28;20041;-71
2022/01/16 10:26:40;;;;;;;98.20;36.63;;;;;;;2.77;100.00;101805.09;10181293;28;20041;-71
2022/01/16 10:31:36;;;;;;;92.53;33.17;;;;;;;2.82;100.00;101786.28;10188890;28;20076;-70
2022/01/16 10:36:35;;;;;;;85.88;33.17;;;;;;;2.79;100.00;101781.38;10206914;28;20046;-70
2022/01/16 10:41:34;;;;;;;99.60;34.50;;;;;;;2.84;100.00;101801.19;10182864;28;20498;-70
2022/01/16 10:46:30;;;;;;;91.22;34.92;;;;;;;2.88;100.00;101796.16;10171598;28;20136;-69
2022/01/16 10:51:27;;;;;;;94.57;35.00;;;;;;;2.94;100.00;101812.19;10189504;28;20502;-70
2022/01/16 10:56:27;;;;;;;100.40;34.38;;;;;;;2.85;100.00;101807.41;10201975;28;20041;-71
2022/01/16 11:01:23;;;;;;;92.43;32.42;;;;;;;2.96;100.00;101798.44;10193346;28;20070;-68
2022/01/16 11:06:21;;;;;;;84.05;32.13;;;;;;;2.99;100.00;101797.97;10159014;28;20065;-71
2022/01/16 11:11:19;;;;;;;72.60;28.05;;;;;;;2.91;100.00;101801.06;10171722;28;20042;-69
2022/01/16 11:16:17;;;;;;;82.70;30.02;;;;;;;2.98;100.00;101795.53;10174798;28;20431;-71
2022/01/16 11:21:18;;;;;;;80.47;29.15;;;;;;;2.94;100.00;101803.28;10168114;28;20474;-71
2022/01/16 11:26:17;;;;;;;79.13;28.63;;;;;;;2.99;100.00;101781.75;10185646;28;20124;-70
2022/01/16 11:31:15;;;;;;;64.35;25.48;;;;;;;3.02;100.00;101797.50;10170583;28;20802;-71
2022/01/16 11:36:23;;;;;;;67.03;26.75;;;;;;;3.08;100.00;101785.72;10164395;28;20069;-74
2022/01/16 11:41:24;;;;;;;71.75;27.58;;;;;;;3.07;100.00;101794.09;10209529;28;20418;-71
2022/01/16 11:46:26;;;;;;;58.72;25.08;;;;;;;3.07;100.00;101794.91;10223860;28;20045;-75
2022/01/16 11:56:40;;;;;;;69.30;25.10;;;;;;;3.13;100.00;101787.69;10209398;28;20081;-68
2022/01/16 12:01:48;;;;;;;70.55;25.92;;;;;;;3.10;100.00;101790.88;10204424;28;20049;-65
2022/01/16 12:06:45;;;;;;;63.08;24.60;;;;;;;3.08;100.00;101785.72;10177955;28;20038;-68
2022/01/16 12:11:42;;;;;;;72.97;29.33;;;;;;;3.19;100.00;101783.22;10217128;28;20148;-68
2022/01/16 12:16:45;;;;;;;69.15;27.05;;;;;;;3.22;100.00;101782.72;10200754;28;20111;-66
2022/01/16 12:21:54;;;;;;;72.45;28.48;;;;;;;3.21;100.00;101778.41;10187771;28;20079;-68
2022/01/16 12:26:51;;;;;;;76.97;30.98;;;;;;;3.28;100.00;101774.47;10191461;28;20136;-66
2022/01/16 12:31:47;;;;;;;79.63;29.25;;;;;;;3.29;100.00;101791.50;10176814;28;20085;-67
2022/01/16 12:36:44;;;;;;;72.70;28.63;;;;;;;3.36;100.00;101786.75;10167670;28;20054;-67
2022/01/16 12:41:45;;;;;;;80.47;31.20;;;;;;;3.34;100.00;101783.47;10165137;28;20149;-68
2022/01/16 12:46:51;;;;;;;84.60;32.35;;;;;;;3.37;100.00;101783.00;10166908;28;20187;-67
2022/01/16 12:51:50;;;;;;;84.03;31.48;;;;;;;3.44;100.00;101778.25;10176250;28;20675;-67
2022/01/16 12:56:49;;;;;;;92.47;34.15;;;;;;;3.56;100.00;101787.13;10176498;28;20050;-67
2022/01/16 13:02:08;;;;;;;83.18;31.48;;;;;;;3.61;100.00;101788.28;10192484;28;20037;-66
2022/01/16 13:07:15;;;;;;;89.78;35.28;;;;;;;3.65;100.00;101778.63;10205087;28;20121;-66
2022/01/16 13:12:12;;;;;;;79.22;32.53;;;;;;;3.69;100.00;101785.16;10211619;28;20100;-67
2022/01/16 13:17:11;;;;;;;84.22;32.42;;;;;;;3.80;100.00;101776.13;10220527;28;20049;-69
2022/01/16 13:27:09;;;;;;;86.88;33.95;;;;;;;3.90;100.00;101762.78;10205809;28;20081;-68
2022/01/16 13:32:08;;;;;;;79.45;33.45;;;;;;;3.97;100.00;101760.72;10206354;28;20069;-68
2022/01/16 13:37:09;;;;;;;79.28;32.70;;;;;;;4.05;100.00;101770.31;10188842;28;20497;-68
2022/01/16 13:42:17;;;;;;;84.25;35.25;;;;;;;4.04;100.00;101770.53;10191478;28;20392;-68
2022/01/16 13:47:22;;;;;;;78.32;34.88;;;;;;;4.11;100.00;101776.63;10177523;28;20058;-67
2022/01/16 13:52:26;;;;;;;83.07;34.72;;;;;;;4.15;100.00;101780.44;10181270;28;20076;-68
2022/01/16 13:57:31;;;;;;;79.95;33.97;;;;;;;4.13;100.00;101788.00;10180211;28;20038;-67
2022/01/16 14:02:27;;;;;;;84.32;34.78;;;;;;;4.08;100.00;101787.94;10195081;28;20120;-68
2022/01/16 14:07:24;;;;;;;85.80;36.22;;;;;;;4.17;100.00;101779.13;10213098;28;20076;-68
2022/01/16 14:12:22;;;;;;;89.28;36.55;;;;;;;4.18;100.00;101785.38;10184004;28;20046;-68
2022/01/16 14:22:21;;;;;;;85.30;37.60;;;;;;;4.29;100.00;101795.28;10177136;28;20181;-67
2022/01/16 14:27:23;;;;;;;78.60;36.33;;;;;;;4.31;100.00;101806.69;10187610;28;20050;-67
2022/01/16 14:32:23;;;;;;;87.25;38.15;;;;;;;4.36;100.00;101806.78;10182143;28;20077;-68
2022/01/16 14:37:21;;;;;;;82.30;36.58;;;;;;;4.38;100.00;101809.22;10187925;28;20418;-68
2022/01/16 14:42:19;;;;;;;88.20;37.65;;;;;;;4.49;100.00;101815.59;10206492;28;20552;-68
2022/01/16 14:47:17;;;;;;;76.82;33.85;;;;;;;4.52;100.00;101815.09;10211072;28;20096;-68
2022/01/16 14:52:13;;;;;;;83.20;36.83;;;;;;;4.60;100.00;101803.84;10162835;28;20062;-68
2022/01/16 14:57:13;;;;;;;70.53;33.85;;;;;;;4.65;100.00;101809.31;10212889;28;20678;-68
2022/01/16 15:02:10;;;;;;;75.15;32.53;;;;;;;4.72;100.00;101799.09;10162343;28;20456;-68
2022/01/16 15:07:08;;;;;;;68.07;32.75;;;;;;;4.70;100.00;101795.81;10213698;28;20045;-68
2022/01/16 15:12:05;;;;;;;68.40;33.20;;;;;;;4.80;100.00;101804.09;10173186;28;20069;-68
2022/01/16 15:17:04;;;;;;;60.97;26.15;;;;;;;4.82;100.00;101804.63;10205776;28;20085;-68
2022/01/16 15:27:08;;;;;;;57.17;28.42;;;;;;;4.90;100.00;101799.84;10199838;28;20133;-68
2022/01/16 15:32:05;;;;;;;63.88;28.50;;;;;;;4.96;100.00;101817.81;10191075;28;20046;-68
2022/01/16 15:37:06;;;;;;;58.22;27.40;;;;;;;4.97;100.00;101800.50;10211341;28;20080;-68
2022/01/16 15:42:03;;;;;;;48.05;24.55;;;;;;;5.01;100.00;101812.44;10191950;28;20045;-67
2022/01/16 15:46:59;;;;;;;57.72;26.73;;;;;;;5.05;100.00;101808.16;10205489;28;20137;-67
2022/01/16 15:51:56;;;;;;;47.65;23.70;;;;;;;5.09;100.00;101820.16;10192174;28;20103;-67
2022/01/16 15:56:52;;;;;;;48.38;25.63;;;;;;;5.12;100.00;101810.69;10215262;28;20057;-68
2022/01/16 16:01:49;;;;;;;38.00;20.00;;;;;;;5.07;100.00;101811.44;10192379;28;20077;-68
2022/01/16 16:06:46;;;;;;;45.83;21.65;;;;;;;5.12;100.00;101814.22;10216699;28;20088;-68
2022/01/16 16:11:42;;;;;;;45.83;21.35;;;;;;;5.14;100.00;101817.47;10206440;28;20054;-68
2022/01/16 16:16:39;;;;;;;43.75;22.52;;;;;;;5.14;100.00;101832.94;10194389;28;20045;-66
2022/01/16 16:21:35;;;;;;;29.02;16.20;;;;;;;5.12;100.00;101841.31;10172463;28;20157;-67
2022/01/16 16:26:32;;;;;;;37.00;16.33;;;;;;;5.06;100.00;101826.91;10206872;28;20061;-67
2022/01/16 16:31:31;;;;;;;29.77;13.70;;;;;;;5.03;100.00;101842.84;10176924;28;20078;-67
2022/01/16 16:36:27;;;;;;;19.92;9.00;;;;;;;5.00;100.00;101855.00;10221687;28;20213;-68
2022/01/16 16:41:24;;;;;;;21.00;9.68;;;;;;;5.04;100.00;101852.63;10232568;28;20045;-68
2022/01/16 16:46:20;;;;;;;21.85;9.18;;;;;;;5.07;100.00;101844.78;10217529;28;20105;-66
2022/01/16 16:51:17;;;;;;;16.10;8.00;;;;;;;5.08;100.00;101845.59;10208672;28;20157;-67
2022/01/16 16:56:13;;;;;;;15.63;6.88;;;;;;;5.12;100.00;101851.34;10216514;28;20077;-67
2022/01/16 17:01:10;;;;;;;14.45;6.32;;;;;;;5.15;100.00;101835.41;10211599;28;20046;-67
2022/01/16 17:06:06;;;;;;;14.30;5.30;;;;;;;5.13;100.00;101853.81;10202765;28;20496;-67
2022/01/16 17:11:03;;;;;;;12.32;5.75;;;;;;;5.15;100.00;101840.81;10211100;28;20045;-68
2022/01/16 17:16:01;;;;;;;14.50;5.95;;;;;;;5.23;100.00;101851.22;10208735;28;20049;-67
2022/01/16 17:20:57;;;;;;;14.82;5.95;;;;;;;5.25;100.00;101846.34;10218199;28;20053;-66
2022/01/16 17:25:54;;;;;;;15.18;6.20;;;;;;;5.30;100.00;101847.50;10218731;28;20044;-68
2022/01/16 17:30:54;;;;;;;20.85;7.25;;;;;;;5.27;100.00;101846.91;10190005;28;20045;-68
2022/01/16 17:35:51;;;;;;;21.85;8.10;;;;;;;5.33;100.00;101857.81;10206644;28;20067;-67
2022/01/16 17:40:49;;;;;;;18.83;8.48;;;;;;;5.38;100.00;101855.97;10184517;28;20053;-67
2022/01/16 17:45:46;;;;;;;23.27;9.13;;;;;;;5.38;100.00;101860.56;10190972;28;20038;-67
2022/01/16 17:50:43;;;;;;;24.20;10.07;;;;;;;5.42;100.00;101856.28;10220357;28;20077;-67
2022/01/16 17:55:47;;;;;;;29.10;10.20;;;;;;;5.41;100.00;101865.50;10209854;28;20103;-67
2022/01/16 18:00:45;;;;;;;29.13;12.00;;;;;;;5.40;100.00;101869.28;10219619;28;20045;-67
2022/01/16 18:05:45;;;;;;;26.63;10.17;;;;;;;5.46;100.00;101873.69;10186297;28;20051;-67
2022/01/16 18:10:42;;;;;;;23.60;10.52;;;;;;;5.43;100.00;101882.31;10183980;28;20049;-67
2022/01/16 18:15:42;;;;;;;29.95;11.52;;;;;;;5.46;100.00;101889.97;10178750;28;20092;-67
2022/01/16 18:20:40;;;;;;;33.20;12.80;;;;;;;5.47;100.00;101891.59;10180133;28;20053;-68
2022/01/16 18:25:36;;;;;;;25.48;12.15;;;;;;;5.46;100.00;101874.50;10170059;28;20080;-67
2022/01/16 18:30:33;;;;;;;30.10;13.73;;;;;;;5.41;100.00;101876.38;10163803;28;20081;-67
2022/01/16 18:35:29;;;;;;;35.75;12.48;;;;;;;5.46;100.00;101901.63;10168547;28;20076;-67
2022/01/16 18:40:26;;;;;;;29.35;13.32;;;;;;;5.47;100.00;101897.03;10165103;28;20053;-67
2022/01/16 18:45:27;;;;;;;30.30;14.40;;;;;;;5.48;100.00;101899.50;10164219;28;20625;-67
2022/01/16 18:50:24;;;;;;;28.35;13.13;;;;;;;5.48;100.00;101914.97;10180753;28;20072;-67
2022/01/16 18:55:20;;;;;;;32.30;13.05;;;;;;;5.49;100.00;101905.72;10167024;28;20115;-68
2022/01/16 19:00:19;;;;;;;29.70;12.13;;;;;;;5.54;100.00;101913.09;10168261;28;20050;-66
2022/01/16 19:05:24;;;;;;;29.63;13.10;;;;;;;5.58;100.00;101909.63;10173927;28;20045;-66
2022/01/16 19:10:24;;;;;;;20.67;9.65;;;;;;;5.59;100.00;101900.44;10168435;28;20438;-67
2022/01/16 19:15:20;;;;;;;26.38;12.48;;;;;;;5.63;100.00;101927.88;10183447;28;20470;-66
2022/01/16 19:20:17;;;;;;;28.45;11.48;;;;;;;5.56;100.00;101944.34;10194931;28;20062;-66
2022/01/16 19:25:15;;;;;;;22.95;12.10;;;;;;;5.52;100.00;101940.47;10206362;28;20042;-66
2022/01/16 19:30:16;;;;;;;21.73;8.73;;;;;;;5.48;100.00;101936.66;10172560;28;20101;-66
2022/01/16 19:35:14;;;;;;;25.77;12.35;;;;;;;5.46;100.00;101925.25;10199274;28;20384;-66
2022/01/16 19:40:12;;;;;;;21.77;9.55;;;;;;;5.47;100.00;101924.16;10198107;28;20075;-66
2022/01/16 19:45:09;;;;;;;28.90;9.40;;;;;;;5.48;100.00;101936.66;10222026;28;20045;-65
2022/01/16 19:50:06;;;;;;;26.77;9.52;;;;;;;5.50;100.00;101953.50;10198429;28;20049;-66
2022/01/16 19:55:03;;;;;;;21.65;7.70;;;;;;;5.50;100.00;101950.78;10212828;28;20513;-65
2022/01/16 20:00:00;;;;;;;22.67;7.25;;;;;;;5.55;100.00;101952.75;10214520;28;20049;-67
2022/01/16 20:04:56;;;;;;;24.98;8.52;;;;;;;5.59;100.00;101946.56;10191594;28;20107;-67
2022/01/16 20:09:53;;;;;;;25.00;8.88;;;;;;;5.62;100.00;101948.75;10224489;28;20038;-66
2022/01/16 20:14:50;;;;;;;27.35;9.48;;;;;;;5.57;100.00;101956.84;10230461;28;20042;-66
2022/01/16 20:19:47;;;;;;;27.27;7.68;;;;;;;5.54;100.00;101956.50;10237053;28;20488;-65
2022/01/16 20:24:44;;;;;;;17.33;6.07;;;;;;;5.58;100.00;101961.19;10229343;28;20045;-66
2022/01/16 20:29:41;;;;;;;24.73;6.00;;;;;;;5.61;100.00;101955.25;10214714;28;20080;-67
2022/01/16 20:34:37;;;;;;;17.58;4.72;;;;;;;5.66;100.00;101966.16;10192479;28;20104;-65
2022/01/16 20:39:34;;;;;;;22.38;5.10;;;;;;;5.69;100.00;101954.81;10232052;28;20536;-65
2022/01/16 20:44:30;;;;;;;17.60;4.18;;;;;;;5.72;100.00;101948.03;10199148;28;20078;-66
2022/01/16 20:49:28;;;;;;;17.80;4.22;;;;;;;5.77;100.00;101960.84;10182472;28;20465;-65
2022/01/16 20:54:25;;;;;;;24.17;3.85;;;;;;;5.77;100.00;101971.69;10171650;28;20042;-67
2022/01/16 20:59:23;;;;;;;20.77;3.90;;;;;;;5.74;100.00;101983.06;10193718;28;20041;-66
2022/01/16 21:04:20;;;;;;;18.42;3.38;;;;;;;5.77;100.00;102004.28;10197502;28;20461;-65
2022/01/16 21:09:16;;;;;;;24.10;3.25;;;;;;;5.77;100.00;102017.84;10190632;28;20076;-65
2022/01/16 21:14:13;;;;;;;22.33;3.08;;;;;;;5.83;100.00;102014.94;10177087;28;20082;-64
2022/01/16 21:19:09;;;;;;;17.00;3.22;;;;;;;5.79;100.00;102023.84;10172355;28;20681;-65
2022/01/16 21:24:09;;;;;;;15.18;4.28;;;;;;;5.82;100.00;102020.59;10188200;28;20039;-64
2022/01/16 21:29:06;;;;;;;19.95;3.10;;;;;;;5.74;100.00;102023.78;10180265;28;20054;-64
2022/01/16 21:34:03;;;;;;;17.92;3.67;;;;;;;5.62;100.00;102041.00;10183800;28;20053;-65
2022/01/16 21:38:59;;;;;;;19.42;4.55;;;;;;;5.48;100.00;102045.97;10187216;28;20073;-64
2022/01/16 21:43:56;;;;;;;17.30;2.67;;;;;;;5.21;100.00;102078.41;10188106;28;20105;-64
2022/01/16 21:48:53;;;;;;;17.48;2.55;;;;;;;5.05;100.00;102068.41;10176332;28;20141;-64
2022/01/16 21:53:49;;;;;;;16.83;2.58;;;;;;;5.06;100.00;102042.94;10178861;28;20073;-64
2022/01/16 21:58:46;;;;;;;19.17;2.85;;;;;;;5.09;100.00;102057.91;10177794;28;20625;-65
2022/01/16 22:03:43;;;;;;;22.73;2.72;;;;;;;5.01;100.00;102078.09;10226740;28;20544;-64
2022/01/16 22:08:39;;;;;;;25.70;4.25;;;;;;;5.10;100.00;102081.22;10220979;28;20111;-65
2022/01/16 22:13:36;;;;;;;20.58;2.53;;;;;;;5.00;100.00;102084.59;10217241;28;20395;-64
2022/01/16 22:18:32;;;;;;;17.23;2.00;;;;;;;5.00;100.00;102065.63;10231673;28;20310;-65
2022/01/16 22:23:31;;;;;;;20.02;2.75;;;;;;;4.99;100.00;102074.81;10213693;28;20054;-66
2022/01/16 22:28:28;;;;;;;15.40;2.17;;;;;;;5.03;100.00;102065.13;10214123;28;20407;-64
2022/01/16 22:33:25;;;;;;;21.92;2.03;;;;;;;5.02;100.00;102069.72;10195053;28;20105;-64
2022/01/16 22:38:21;;;;;;;25.02;4.57;;;;;;;5.04;100.00;102083.03;10213877;28;20043;-62
2022/01/16 22:43:19;;;;;;;20.08;3.22;;;;;;;5.03;100.00;102081.38;10192610;28;20054;-64
2022/01/16 22:48:16;;;;;;;27.77;2.75;;;;;;;5.04;100.00;102073.00;10189938;28;20046;-63
2022/01/16 22:53:12;;;;;;;19.27;3.67;;;;;;;5.07;100.00;102060.84;10191222;28;20070;-63
2022/01/16 22:58:11;;;;;;;23.38;2.08;;;;;;;5.12;100.00;102062.81;10221114;28;20509;-63
2022/01/16 23:03:10;;;;;;;25.25;2.75;;;;;;;5.07;100.00;102068.97;10202374;28;20510;-63
2022/01/16 23:08:09;;;;;;;16.67;2.35;;;;;;;5.12;100.00;102063.63;10217722;28;20041;-63
2022/01/16 23:13:05;;;;;;;22.60;2.42;;;;;;;5.07;100.00;102050.81;10154689;28;20042;-62
2022/01/16 23:18:02;;;;;;;20.08;2.50;;;;;;;5.18;100.00;102056.41;10209609;28;20046;-62
2022/01/16 23:22:58;;;;;;;14.40;2.17;;;;;;;5.11;100.00;102050.34;10194862;28;20082;-63
2022/01/16 23:27:55;;;;;;;16.67;2.92;;;;;;;5.12;100.00;102062.81;10200057;28;20057;-63
2022/01/16 23:32:52;;;;;;;9.73;2.25;;;;;;;5.16;100.00;102062.06;10194675;28;20077;-63